Time;durP1;ratioP1;P1;durP2;ratioP2;P2;SDS_P1;SDS_P2;PMS_P1;PMS_P2;Temp;Humidity;BMP_temperature;BMP_pressure;BME280_temperature;BME280_humidity;BME280_pressure;Samples;Min_cycle;Max_cycle;Signal;HPM_P1;HPM_P2
2023/09/10 00:01:06;;;;;;;9.45;7.70;;;19.10;99.90;;;;;;5041219;28;20040;-89
2023/09/10 00:03:32;;;;;;;11.02;7.30;;;19.10;99.90;;;;;;5035372;28;20128;-88
2023/09/10 00:05:59;;;;;;;10.07;8.15;;;19.00;99.90;;;;;;5049864;28;20041;-89
2023/09/10 00:08:25;;;;;;;9.38;6.80;;;19.00;99.90;;;;;;5019517;28;20037;-88
2023/09/10 00:10:51;;;;;;;11.27;6.88;;;18.90;99.90;;;;;;5018896;28;20518;-89
2023/09/10 00:13:17;;;;;;;9.95;7.00;;;18.90;99.90;;;;;;5036257;28;20041;-89
2023/09/10 00:15:43;;;;;;;9.55;6.70;;;18.90;99.90;;;;;;5019271;28;20090;-89
2023/09/10 00:18:09;;;;;;;8.15;6.22;;;18.90;99.90;;;;;;5035209;28;20446;-89
2023/09/10 00:20:34;;;;;;;9.27;8.27;;;18.90;99.90;;;;;;5035562;28;20037;-89
2023/09/10 00:23:00;;;;;;;9.27;6.72;;;18.80;99.90;;;;;;5019433;28;20094;-89
2023/09/10 00:25:26;;;;;;;9.55;8.40;;;18.80;99.90;;;;;;5035266;28;20496;-89
2023/09/10 00:27:52;;;;;;;8.50;6.93;;;18.80;99.90;;;;;;5035176;28;20044;-89
2023/09/10 00:30:17;;;;;;;9.43;7.40;;;18.80;99.90;;;;;;5019260;28;20574;-89
2023/09/10 00:32:43;;;;;;;10.90;9.80;;;18.80;99.90;;;;;;5035142;28;20116;-89
2023/09/10 00:35:09;;;;;;;9.95;8.95;;;18.80;99.90;;;;;;5034715;28;20131;-88
2023/09/10 00:37:34;;;;;;;10.85;8.90;;;18.80;99.90;;;;;;5018297;28;20072;-88
2023/09/10 00:40:00;;;;;;;10.93;9.88;;;18.80;99.90;;;;;;5035565;28;20570;-88
2023/09/10 00:42:26;;;;;;;9.10;8.02;;;18.70;99.90;;;;;;5035676;28;20044;-88
2023/09/10 00:44:51;;;;;;;8.52;5.47;;;18.70;99.90;;;;;;5018556;28;20069;-88
2023/09/10 00:47:17;;;;;;;7.30;5.10;;;18.60;99.90;;;;;;5034621;28;20400;-88
2023/09/10 00:49:44;;;;;;;8.30;5.85;;;18.50;99.90;;;;;;5018442;28;20096;-88
2023/09/10 00:52:11;;;;;;;8.95;5.50;;;18.50;99.90;;;;;;5034272;28;20053;-88
2023/09/10 00:54:37;;;;;;;10.18;8.18;;;18.40;99.90;;;;;;5034728;28;20029;-88
2023/09/10 00:57:04;;;;;;;10.02;9.00;;;18.40;99.90;;;;;;5016772;28;20041;-88
2023/09/10 00:59:30;;;;;;;10.85;9.75;;;18.40;99.90;;;;;;5033943;28;20048;-88
2023/09/10 01:01:57;;;;;;;12.50;9.10;;;18.40;99.90;;;;;;5031513;28;20037;-88
2023/09/10 01:04:23;;;;;;;11.63;10.15;;;18.40;99.90;;;;;;5035233;28;20136;-88
2023/09/10 01:06:51;;;;;;;13.63;12.23;;;18.40;99.90;;;;;;5018011;28;20080;-88
2023/09/10 01:09:17;;;;;;;11.27;8.85;;;18.40;99.90;;;;;;5035005;28;20032;-88
2023/09/10 01:12:07;;;;;;;18.52;16.92;;;18.40;99.90;;;;;;5034379;28;20044;-88
2023/09/10 01:14:57;;;;;;;16.30;14.75;;;18.40;99.90;;;;;;5034313;28;20033;-88
2023/09/10 01:17:37;;;;;;;19.15;17.33;;;18.40;99.90;;;;;;5033665;28;20056;-88
2023/09/10 01:20:11;;;;;;;16.25;12.25;;;18.50;99.90;;;;;;5034085;28;20128;-88
2023/09/10 01:22:46;;;;;;;25.58;23.27;;;18.40;99.90;;;;;;5017839;28;20041;-88
2023/09/10 01:25:12;;;;;;;14.35;12.95;;;18.40;99.90;;;;;;5017988;28;20624;-88
2023/09/10 01:27:37;;;;;;;13.23;11.93;;;18.50;99.90;;;;;;5033376;28;20545;-88
2023/09/10 01:30:04;;;;;;;13.32;11.93;;;18.50;99.90;;;;;;5016464;28;20033;-88
2023/09/10 01:32:40;;;;;;;14.20;12.77;;;18.50;99.90;;;;;;5016739;28;20092;-87
2023/09/10 01:35:24;;;;;;;13.52;12.23;;;18.50;99.90;;;;;;5033538;28;20041;-88
2023/09/10 01:38:06;;;;;;;14.70;13.30;;;18.40;99.90;;;;;;5017077;28;20279;-88
2023/09/10 01:40:44;;;;;;;15.05;9.18;;;18.40;99.90;;;;;;5017066;28;20099;-88
2023/09/10 01:43:10;;;;;;;13.68;12.38;;;18.30;99.90;;;;;;5016673;28;20475;-88
2023/09/10 01:45:36;;;;;;;12.70;11.32;;;18.20;99.90;;;;;;5034151;28;20049;-88
2023/09/10 01:48:03;;;;;;;11.10;9.30;;;18.20;99.90;;;;;;5033549;28;20051;-88
2023/09/10 01:50:29;;;;;;;10.38;9.32;;;18.20;99.90;;;;;;5029925;28;20397;-88
2023/09/10 01:52:58;;;;;;;10.07;8.68;;;18.20;99.90;;;;;;5010850;28;20718;-88
2023/09/10 01:55:24;;;;;;;9.95;7.95;;;18.10;99.90;;;;;;5032382;28;20043;-88
2023/09/10 01:57:50;;;;;;;9.85;7.18;;;18.00;99.90;;;;;;5032465;28;20045;-88
2023/09/10 02:00:15;;;;;;;8.65;6.55;;;18.00;99.90;;;;;;5033562;28;20036;-88
2023/09/10 02:02:41;;;;;;;8.30;5.28;;;18.00;99.90;;;;;;5017347;28;20527;-88
2023/09/10 02:05:07;;;;;;;7.88;5.70;;;17.80;99.90;;;;;;5033754;28;20486;-87
2023/09/10 02:07:33;;;;;;;8.30;6.00;;;17.80;99.90;;;;;;5016880;28;20124;-87
2023/09/10 02:09:59;;;;;;;8.40;6.70;;;17.80;99.90;;;;;;5017263;28;20427;-87
2023/09/10 02:12:25;;;;;;;9.65;7.72;;;17.80;99.90;;;;;;5033124;28;20037;-87
2023/09/10 02:14:51;;;;;;;10.07;9.07;;;17.80;99.90;;;;;;5016790;28;20045;-87
2023/09/10 02:17:16;;;;;;;10.10;8.57;;;17.70;99.90;;;;;;5032324;28;20416;-87
2023/09/10 02:19:42;;;;;;;9.63;8.25;;;17.70;99.90;;;;;;5032760;28;20420;-87
2023/09/10 02:22:08;;;;;;;10.45;8.43;;;17.80;99.90;;;;;;5033665;28;20427;-88
2023/09/10 02:24:33;;;;;;;9.90;7.65;;;17.70;99.90;;;;;;5033635;28;20044;-87
2023/09/10 02:26:59;;;;;;;9.70;7.70;;;17.70;99.90;;;;;;5033268;28;20044;-88
2023/09/10 02:29:24;;;;;;;10.65;8.73;;;17.70;99.90;;;;;;5032027;28;20507;-87
2023/09/10 02:31:50;;;;;;;13.90;12.50;;;17.70;99.90;;;;;;5032618;28;20037;-87
2023/09/10 02:34:15;;;;;;;15.40;13.80;;;17.70;99.90;;;;;;5031396;28;20507;-88
2023/09/10 02:36:41;;;;;;;13.55;8.80;;;17.60;99.90;;;;;;5016569;28;20037;-88
2023/09/10 02:39:06;;;;;;;13.75;12.35;;;17.60;99.90;;;;;;5016064;28;20064;-88
2023/09/10 02:41:32;;;;;;;11.73;8.80;;;17.60;99.90;;;;;;5016706;28;20037;-87
2023/09/10 02:43:58;;;;;;;12.05;10.90;;;17.60;99.90;;;;;;5033121;28;20094;-88
2023/09/10 02:46:25;;;;;;;10.93;9.77;;;17.60;99.90;;;;;;5032264;28;20045;-88
2023/09/10 02:48:50;;;;;;;10.38;7.70;;;17.60;99.90;;;;;;5015815;28;20041;-88
2023/09/10 02:51:16;;;;;;;12.57;9.95;;;17.60;99.90;;;;;;5032637;28;20071;-88
2023/09/10 02:53:42;;;;;;;13.18;11.85;;;17.50;99.90;;;;;;5032893;28;20076;-88
2023/09/10 02:56:07;;;;;;;10.48;9.43;;;17.50;99.90;;;;;;5032928;28;20044;-88
2023/09/10 02:58:33;;;;;;;10.82;9.52;;;17.60;99.90;;;;;;5032491;28;20041;-87
2023/09/10 03:01:05;;;;;;;10.38;7.68;;;17.50;99.90;;;;;;5031841;28;20087;-88
2023/09/10 03:03:34;;;;;;;10.68;9.50;;;17.50;99.90;;;;;;5032353;28;20041;-87
2023/09/10 03:06:00;;;;;;;9.65;8.65;;;17.40;99.90;;;;;;5015931;28;20037;-87
2023/09/10 03:08:26;;;;;;;9.95;8.95;;;17.40;99.90;;;;;;5016064;28;20484;-88
2023/09/10 03:10:51;;;;;;;7.80;6.90;;;17.50;99.90;;;;;;5016912;28;20037;-88
2023/09/10 03:13:17;;;;;;;8.85;7.95;;;17.50;99.90;;;;;;5032791;28;20499;-87
2023/09/10 03:15:47;;;;;;;12.57;11.27;;;17.50;99.90;;;;;;5032818;28;20076;-87
2023/09/10 03:18:13;;;;;;;10.48;9.38;;;17.50;99.90;;;;;;5032293;28;20045;-88
2023/09/10 03:20:38;;;;;;;10.85;8.43;;;17.50;99.90;;;;;;5016671;28;20120;-87
2023/09/10 03:23:04;;;;;;;10.50;9.05;;;17.50;99.90;;;;;;5016706;28;20044;-87
2023/09/10 03:25:34;;;;;;;11.55;10.27;;;17.50;99.90;;;;;;5016494;28;20041;-87
2023/09/10 03:27:59;;;;;;;14.00;9.32;;;17.50;99.90;;;;;;5015247;28;20136;-88
2023/09/10 03:30:25;;;;;;;14.13;12.38;;;17.50;99.90;;;;;;5016489;28;20128;-87
2023/09/10 03:32:51;;;;;;;19.70;17.92;;;17.50;99.90;;;;;;5015932;28;20510;-87
2023/09/10 03:35:16;;;;;;;20.85;18.95;;;17.50;99.90;;;;;;5031758;28;20124;-87
2023/09/10 03:37:42;;;;;;;15.57;13.95;;;17.50;99.90;;;;;;5015312;28;20091;-88
2023/09/10 03:40:08;;;;;;;13.95;12.45;;;17.50;99.90;;;;;;5031954;28;20033;-88
2023/09/10 03:42:34;;;;;;;16.27;14.68;;;17.50;99.90;;;;;;5015527;28;20075;-87
2023/09/10 03:45:00;;;;;;;16.38;13.48;;;17.50;99.90;;;;;;5032336;28;20080;-87
2023/09/10 03:47:28;;;;;;;23.27;21.10;;;17.50;99.90;;;;;;5018327;28;20120;-86
2023/09/10 03:49:53;;;;;;;17.98;16.05;;;17.50;99.90;;;;;;5036045;28;20041;-86
2023/09/10 03:52:21;;;;;;;17.83;13.95;;;17.50;99.90;;;;;;5035883;28;20116;-87
2023/09/10 03:54:47;;;;;;;13.30;11.90;;;17.50;99.90;;;;;;5028260;28;20028;-87
2023/09/10 03:57:13;;;;;;;17.48;13.25;;;17.50;99.90;;;;;;5035019;28;20033;-87
2023/09/10 03:59:39;;;;;;;15.77;14.18;;;17.50;99.90;;;;;;5019692;28;20478;-88
2023/09/10 04:02:04;;;;;;;11.63;10.52;;;17.50;99.90;;;;;;5011300;28;20072;-87
2023/09/10 04:04:30;;;;;;;11.70;10.50;;;17.40;99.90;;;;;;5018959;28;20562;-87
2023/09/10 04:06:56;;;;;;;13.50;8.55;;;17.40;99.90;;;;;;5035996;28;20044;-88
2023/09/10 04:09:21;;;;;;;13.93;12.52;;;17.30;99.90;;;;;;5035747;28;20040;-87
2023/09/10 04:11:47;;;;;;;14.45;12.85;;;17.30;99.90;;;;;;5035453;28;20632;-87
2023/09/10 04:14:12;;;;;;;8.73;6.88;;;17.30;99.90;;;;;;5018542;28;20427;-88
2023/09/10 04:16:38;;;;;;;7.57;4.57;;;17.30;99.90;;;;;;5035054;28;20037;-88
2023/09/10 04:19:03;;;;;;;7.55;5.20;;;17.30;99.90;;;;;;5034830;28;20052;-87
2023/09/10 04:21:29;;;;;;;9.35;7.18;;;17.20;99.90;;;;;;5017479;28;20045;-87
2023/09/10 04:23:55;;;;;;;18.85;17.05;;;17.20;99.90;;;;;;5035233;28;20040;-87
2023/09/10 04:26:20;;;;;;;12.13;10.82;;;17.20;99.90;;;;;;5035466;28;20400;-87
2023/09/10 04:28:46;;;;;;;8.45;6.85;;;17.20;99.90;;;;;;5018490;28;20033;-87
2023/09/10 04:31:13;;;;;;;8.45;6.00;;;17.30;99.90;;;;;;5035682;28;20168;-87
2023/09/10 04:33:39;;;;;;;9.52;6.25;;;17.20;99.90;;;;;;5019344;28;20123;-87
2023/09/10 04:36:04;;;;;;;14.27;12.88;;;17.20;99.90;;;;;;5035514;28;20564;-87
2023/09/10 04:38:30;;;;;;;13.05;10.05;;;17.20;99.90;;;;;;5018223;28;20029;-87
2023/09/10 04:40:56;;;;;;;17.95;16.25;;;17.10;99.90;;;;;;5035245;28;20045;-87
2023/09/10 04:43:22;;;;;;;17.52;15.82;;;17.20;99.90;;;;;;5018092;28;20040;-88
2023/09/10 04:45:47;;;;;;;19.02;17.23;;;17.20;99.90;;;;;;5035045;28;20048;-88
2023/09/10 04:48:13;;;;;;;15.23;13.63;;;17.20;99.90;;;;;;5034388;28;20091;-88
2023/09/10 04:50:40;;;;;;;14.18;12.68;;;17.20;99.90;;;;;;5017929;28;20433;-88
2023/09/10 04:53:05;;;;;;;12.60;10.48;;;17.20;99.90;;;;;;5034106;28;20048;-88
2023/09/10 04:55:31;;;;;;;12.95;11.63;;;17.20;99.90;;;;;;5017814;28;20037;-88
2023/09/10 04:57:56;;;;;;;14.77;13.27;;;17.20;99.90;;;;;;5016516;28;20407;-88
2023/09/10 05:00:22;;;;;;;12.15;10.85;;;17.20;99.90;;;;;;5034205;28;20037;-88
2023/09/10 05:02:48;;;;;;;13.48;11.25;;;17.20;99.90;;;;;;5034187;28;20041;-88
2023/09/10 05:05:14;;;;;;;11.93;8.13;;;17.10;99.90;;;;;;5017621;28;20414;-87
2023/09/10 05:07:40;;;;;;;15.38;13.88;;;17.10;99.90;;;;;;5033921;28;20052;-87
2023/09/10 05:10:06;;;;;;;13.10;11.18;;;17.10;99.90;;;;;;5017798;28;20037;-88
2023/09/10 05:12:32;;;;;;;17.65;15.85;;;17.10;99.90;;;;;;5016692;28;20033;-87
2023/09/10 05:14:57;;;;;;;17.08;15.32;;;17.10;99.90;;;;;;5033499;28;20411;-88
2023/09/10 05:17:23;;;;;;;15.90;11.05;;;17.10;99.90;;;;;;5033409;28;20412;-88
2023/09/10 05:19:48;;;;;;;18.73;16.83;;;17.00;99.90;;;;;;5033835;28;20036;-88
2023/09/10 05:22:14;;;;;;;23.02;21.02;;;17.10;99.90;;;;;;5016924;28;20049;-87
2023/09/10 05:24:40;;;;;;;21.25;15.50;;;17.10;99.90;;;;;;5033459;28;20045;-87
2023/09/10 05:27:05;;;;;;;26.35;23.95;;;17.10;99.90;;;;;;5033415;28;20037;-87
2023/09/10 05:29:31;;;;;;;27.15;24.70;;;17.10;99.90;;;;;;5033526;28;20048;-87
2023/09/10 05:31:56;;;;;;;27.55;25.20;;;17.10;99.90;;;;;;5033619;28;20507;-87
2023/09/10 05:34:22;;;;;;;30.40;27.70;;;17.20;99.90;;;;;;5034052;28;20029;-87
2023/09/10 05:36:48;;;;;;;31.83;28.98;;;17.20;99.90;;;;;;5033546;28;20045;-87
2023/09/10 05:39:14;;;;;;;35.70;32.63;;;17.20;99.90;;;;;;5016830;28;20032;-87
2023/09/10 05:41:40;;;;;;;16.45;13.00;;;17.20;99.90;;;;;;5018063;28;20106;-87
2023/09/10 05:44:05;;;;;;;19.73;17.92;;;17.20;99.90;;;;;;5034218;28;20500;-87
2023/09/10 05:46:31;;;;;;;22.65;20.55;;;17.20;99.90;;;;;;5017342;28;20047;-88
2023/09/10 05:48:56;;;;;;;15.55;12.43;;;17.20;99.90;;;;;;5016191;28;20542;-88
2023/09/10 05:51:22;;;;;;;16.15;14.45;;;17.20;99.90;;;;;;5033278;28;20041;-88
2023/09/10 05:53:48;;;;;;;14.50;10.95;;;17.20;99.90;;;;;;5016546;28;20059;-87
2023/09/10 05:56:13;;;;;;;23.52;21.33;;;17.20;99.90;;;;;;5016661;28;20405;-87
2023/09/10 05:58:39;;;;;;;20.25;18.33;;;17.20;99.90;;;;;;5032791;28;20035;-87
2023/09/10 06:01:04;;;;;;;19.15;17.38;;;17.20;99.90;;;;;;5013768;28;20065;-87
2023/09/10 06:03:30;;;;;;;11.98;8.93;;;17.30;99.90;;;;;;5023058;28;20068;-87
2023/09/10 06:06:00;;;;;;;8.27;7.03;;;17.30;99.90;;;;;;5039569;28;20049;-87
2023/09/10 06:08:26;;;;;;;12.48;11.18;;;17.30;99.90;;;;;;5038543;28;20589;-87
2023/09/10 06:10:52;;;;;;;10.10;8.93;;;17.30;99.90;;;;;;5040116;28;20073;-87
2023/09/10 06:13:17;;;;;;;13.32;12.02;;;17.40;99.90;;;;;;5037334;28;20119;-87
2023/09/10 06:15:44;;;;;;;11.10;8.35;;;17.40;99.90;;;;;;5022752;28;20098;-86
2023/09/10 06:18:09;;;;;;;13.85;12.55;;;17.40;99.90;;;;;;5021249;28;20128;-87
2023/09/10 06:20:35;;;;;;;15.45;14.05;;;17.40;99.90;;;;;;5038930;28;20466;-87
2023/09/10 06:23:00;;;;;;;16.90;15.20;;;17.50;99.90;;;;;;5020919;28;20051;-88
2023/09/10 06:25:26;;;;;;;17.02;15.43;;;17.50;99.90;;;;;;5032758;28;20041;-87
2023/09/10 06:27:52;;;;;;;17.23;15.38;;;17.60;99.90;;;;;;5032837;28;20051;-88
2023/09/10 06:30:18;;;;;;;18.83;17.13;;;17.60;99.90;;;;;;5016992;28;20116;-87
2023/09/10 06:32:43;;;;;;;17.35;12.15;;;17.70;99.90;;;;;;5016765;28;20435;-87
2023/09/10 06:35:09;;;;;;;24.92;22.73;;;17.70;99.90;;;;;;5016854;28;20040;-87
2023/09/10 06:37:34;;;;;;;25.50;23.15;;;17.70;99.90;;;;;;5016650;28;20048;-87
2023/09/10 06:40:00;;;;;;;24.58;22.42;;;17.80;99.90;;;;;;5016390;28;20048;-87
2023/09/10 06:42:26;;;;;;;25.77;23.38;;;17.90;99.90;;;;;;5033225;28;20044;-87
2023/09/10 06:44:51;;;;;;;30.92;28.20;;;17.90;99.90;;;;;;5017118;28;20073;-88
2023/09/10 06:47:17;;;;;;;21.52;19.08;;;18.00;99.90;;;;;;5016427;28;20041;-87
2023/09/10 06:49:43;;;;;;;31.55;28.70;;;18.10;99.90;;;;;;5020278;28;20044;-88
2023/09/10 06:52:09;;;;;;;34.70;31.70;;;18.10;99.90;;;;;;5033110;28;20033;-88
2023/09/10 06:54:35;;;;;;;35.55;32.40;;;18.20;99.90;;;;;;5016229;28;20044;-88
2023/09/10 06:57:01;;;;;;;49.38;45.28;;;18.30;99.90;;;;;;5015699;28;20038;-88
2023/09/10 06:59:28;;;;;;;59.33;54.38;;;18.40;99.90;;;;;;5032094;28;20182;-88
2023/09/10 07:01:53;;;;;;;58.00;52.85;;;18.50;99.90;;;;;;5022432;28;20044;-88
2023/09/10 07:04:21;;;;;;;52.92;48.50;;;18.60;99.90;;;;;;5039175;28;20124;-87
2023/09/10 07:06:48;;;;;;;58.15;53.35;;;18.70;99.90;;;;;;5023293;28;20041;-89
2023/09/10 07:09:17;;;;;;;55.67;50.97;;;18.80;99.90;;;;;;5021526;28;20090;-88
2023/09/10 07:11:43;;;;;;;59.75;54.72;;;18.90;99.90;;;;;;5039297;28;20049;-88
2023/09/10 07:14:08;;;;;;;66.82;61.08;;;18.90;99.90;;;;;;5020105;28;20116;-88
2023/09/10 07:16:34;;;;;;;62.00;56.80;;;19.10;99.90;;;;;;5041031;28;20029;-87
2023/09/10 07:19:00;;;;;;;60.33;55.30;;;19.10;99.90;;;;;;5016095;28;20033;-88
2023/09/10 07:21:26;;;;;;;62.58;57.22;;;19.20;99.90;;;;;;5035424;28;20037;-88
2023/09/10 07:23:52;;;;;;;61.42;56.22;;;19.30;99.90;;;;;;5035982;28;20124;-88
2023/09/10 07:26:17;;;;;;;59.25;54.00;;;19.40;99.90;;;;;;5019470;28;20045;-88
2023/09/10 07:28:43;;;;;;;57.55;52.75;;;19.50;99.90;;;;;;5016115;28;20090;-87
2023/09/10 07:31:08;;;;;;;56.35;51.55;;;19.60;99.90;;;;;;5036485;28;20136;-87
2023/09/10 07:33:34;;;;;;;56.08;51.28;;;19.70;99.90;;;;;;5019773;28;20037;-86
2023/09/10 07:36:00;;;;;;;55.80;51.15;;;19.80;99.90;;;;;;5041456;28;20075;-87
2023/09/10 07:38:25;;;;;;;53.67;49.15;;;19.80;99.90;;;;;;5036308;28;20033;-87
2023/09/10 07:40:51;;;;;;;54.03;49.38;;;19.90;99.90;;;;;;5036550;28;20053;-87
2023/09/10 07:43:16;;;;;;;53.38;48.92;;;20.00;99.90;;;;;;5035931;28;20033;-87
2023/09/10 07:45:44;;;;;;;54.97;50.05;;;20.10;99.90;;;;;;5027387;28;20052;-87
2023/09/10 07:48:11;;;;;;;55.22;50.63;;;20.20;99.90;;;;;;5018981;28;20110;-88
2023/09/10 07:50:37;;;;;;;52.55;48.17;;;20.30;99.90;;;;;;5035810;28;20045;-87
2023/09/10 07:53:03;;;;;;;50.97;46.67;;;20.40;99.90;;;;;;5035731;28;20450;-87
2023/09/10 07:55:28;;;;;;;48.90;44.72;;;20.50;99.90;;;;;;5036641;28;20429;-87
2023/09/10 07:57:54;;;;;;;48.63;44.53;;;20.60;99.90;;;;;;5053676;28;20430;-89
2023/09/10 08:00:20;;;;;;;48.30;44.25;;;20.70;99.90;;;;;;5013381;28;20456;-88
2023/09/10 08:02:46;;;;;;;47.90;43.92;;;20.80;99.90;;;;;;5036455;28;20567;-88
2023/09/10 08:05:12;;;;;;;46.55;42.60;;;20.90;99.90;;;;;;5036398;28;20372;-88
2023/09/10 08:07:37;;;;;;;47.42;43.45;;;20.90;99.90;;;;;;5019556;28;20041;-88
2023/09/10 08:10:03;;;;;;;45.58;41.75;;;21.00;99.90;;;;;;5036272;28;20500;-88
2023/09/10 08:12:29;;;;;;;43.50;39.92;;;21.10;99.90;;;;;;5019508;28;20492;-88
2023/09/10 08:14:55;;;;;;;43.60;39.90;;;21.20;99.90;;;;;;5019176;28;20037;-88
2023/09/10 08:17:21;;;;;;;44.22;40.42;;;21.40;99.90;;;;;;5034788;28;20502;-88
2023/09/10 08:19:46;;;;;;;41.10;37.40;;;21.40;99.90;;;;;;5035588;28;20163;-88
2023/09/10 08:22:12;;;;;;;37.70;34.38;;;21.50;99.90;;;;;;5034067;28;20140;-88
2023/09/10 08:24:37;;;;;;;40.47;37.00;;;21.60;99.90;;;;;;5034599;28;20518;-88
2023/09/10 08:27:03;;;;;;;40.00;36.58;;;21.70;99.90;;;;;;5034004;28;20036;-88
2023/09/10 08:29:30;;;;;;;38.08;34.88;;;21.80;99.90;;;;;;5037083;28;20040;-88
2023/09/10 08:31:56;;;;;;;38.17;34.88;;;21.90;99.90;;;;;;5039777;28;20422;-88
2023/09/10 08:34:22;;;;;;;37.58;34.38;;;22.00;99.90;;;;;;5040608;28;20029;-88
2023/09/10 08:36:47;;;;;;;39.13;35.58;;;22.10;99.90;;;;;;5041041;28;20033;-89
2023/09/10 08:39:13;;;;;;;37.22;34.00;;;22.20;99.90;;;;;;5036991;28;20520;-89
2023/09/10 08:42:05;;;;;;;36.17;33.10;;;22.30;99.90;;;;;;5027398;28;20056;-89
2023/09/10 08:44:31;;;;;;;33.45;30.50;;;22.40;99.90;;;;;;5034103;28;20041;-88
2023/09/10 08:47:01;;;;;;;33.58;30.55;;;22.50;99.90;;;;;;5015768;28;20045;-89
2023/09/10 08:49:27;;;;;;;33.88;30.83;;;22.60;99.90;;;;;;5031517;28;20415;-89
2023/09/10 08:51:54;;;;;;;32.33;29.42;;;22.70;99.90;;;;;;5032195;28;20044;-89
2023/09/10 08:54:20;;;;;;;30.08;27.35;;;22.70;99.90;;;;;;5035151;28;20049;-89
2023/09/10 08:56:48;;;;;;;30.65;27.70;;;22.80;99.90;;;;;;5035609;28;20771;-89
2023/09/10 08:59:14;;;;;;;31.98;29.38;;;22.90;99.90;;;;;;5034641;28;20453;-89
2023/09/10 09:01:42;;;;;;;32.05;29.33;;;23.00;99.90;;;;;;5018689;28;20041;-89
2023/09/10 09:04:08;;;;;;;33.90;30.90;;;23.10;99.90;;;;;;5034788;28;20044;-89
2023/09/10 09:06:37;;;;;;;30.85;28.00;;;23.20;99.90;;;;;;5035460;28;20067;-90
2023/09/10 09:09:05;;;;;;;31.80;28.98;;;23.30;99.90;;;;;;5015561;28;20048;-90
2023/09/10 09:11:35;;;;;;;28.75;26.05;;;23.40;99.90;;;;;;5032029;28;20040;-89
2023/09/10 09:14:01;;;;;;;30.10;27.30;;;23.50;99.90;;;;;;5015998;28;20030;-89
2023/09/10 09:16:26;;;;;;;30.13;27.38;;;23.60;99.90;;;;;;5031790;28;20041;-90
2023/09/10 09:18:52;;;;;;;30.38;27.58;;;23.70;99.90;;;;;;5012996;28;20211;-90
2023/09/10 09:21:20;;;;;;;27.83;25.40;;;23.80;99.90;;;;;;5017399;28;20040;-89
2023/09/10 09:23:50;;;;;;;27.30;24.67;;;23.90;99.90;;;;;;5026508;28;20389;-90
2023/09/10 09:26:15;;;;;;;25.17;22.88;;;23.90;99.90;;;;;;5014424;28;20037;-89
2023/09/10 09:28:41;;;;;;;26.35;23.95;;;24.00;99.90;;;;;;5027932;28;20048;-89
2023/09/10 09:31:09;;;;;;;23.23;21.13;;;24.10;99.90;;;;;;5031551;28;20041;-89
2023/09/10 09:33:38;;;;;;;23.67;21.38;;;24.20;99.90;;;;;;5017905;28;20035;-89
2023/09/10 09:36:08;;;;;;;21.67;18.90;;;24.30;99.90;;;;;;5015513;28;20558;-89
2023/09/10 09:38:34;;;;;;;19.48;17.55;;;24.30;99.90;;;;;;5016968;28;20037;-89
2023/09/10 09:41:06;;;;;;;19.45;17.50;;;24.40;99.90;;;;;;5028958;28;20036;-89
2023/09/10 09:43:34;;;;;;;22.33;20.00;;;24.50;99.90;;;;;;5016385;28;20082;-90
2023/09/10 09:46:00;;;;;;;21.15;19.15;;;24.60;99.90;;;;;;5028927;28;20033;-90
2023/09/10 09:48:26;;;;;;;19.40;17.55;;;24.70;99.90;;;;;;5016537;28;20086;-90
2023/09/10 09:50:51;;;;;;;19.80;17.80;;;24.80;99.90;;;;;;5027555;28;20037;-90
2023/09/10 09:53:17;;;;;;;20.42;18.42;;;24.80;99.90;;;;;;5030866;28;20044;-90
2023/09/10 09:55:44;;;;;;;20.77;18.60;;;24.90;99.90;;;;;;5017761;28;20041;-89
2023/09/10 09:58:11;;;;;;;21.25;19.08;;;25.00;99.90;;;;;;5033383;28;20041;-89
2023/09/10 10:00:37;;;;;;;20.92;18.85;;;25.10;99.90;;;;;;5017778;28;20047;-89
2023/09/10 10:03:05;;;;;;;20.35;18.45;;;25.20;99.90;;;;;;5034314;28;20045;-90
2023/09/10 10:05:32;;;;;;;22.02;19.95;;;25.20;99.90;;;;;;5017528;28;20040;-90
2023/09/10 10:07:59;;;;;;;19.73;17.73;;;25.30;99.90;;;;;;5033358;28;20048;-90
2023/09/10 10:10:25;;;;;;;20.50;18.55;;;25.40;99.90;;;;;;5033488;28;20131;-90
2023/09/10 10:12:52;;;;;;;20.52;18.50;;;25.50;99.90;;;;;;5033226;28;20128;-89
2023/09/10 10:15:19;;;;;;;19.77;17.88;;;25.60;99.90;;;;;;5016837;28;20090;-89
2023/09/10 10:17:45;;;;;;;19.85;17.98;;;25.70;99.90;;;;;;5032973;28;20442;-90
2023/09/10 10:20:13;;;;;;;20.05;18.17;;;25.80;99.90;;;;;;5033529;28;20120;-90
2023/09/10 10:22:39;;;;;;;19.80;17.90;;;25.80;99.90;;;;;;5033988;28;20052;-90
2023/09/10 10:25:07;;;;;;;18.80;16.80;;;25.90;99.90;;;;;;5016778;28;20076;-89
2023/09/10 10:27:35;;;;;;;20.33;18.33;;;26.00;99.90;;;;;;5032934;28;20519;-90
2023/09/10 10:30:03;;;;;;;20.08;17.90;;;26.10;99.90;;;;;;5033599;28;20507;-90
2023/09/10 10:32:38;;;;;;;18.05;16.05;;;26.10;99.90;;;;;;5033274;28;20043;-90
2023/09/10 10:35:05;;;;;;;18.25;16.10;;;26.20;99.90;;;;;;5033303;28;20545;-90
2023/09/10 10:37:59;;;;;;;18.45;16.50;;;26.30;99.90;;;;;;5032462;28;20124;-90
2023/09/10 10:40:30;;;;;;;18.05;16.25;;;26.40;99.90;;;;;;5033048;28;20062;-90
2023/09/10 10:43:14;;;;;;;17.65;15.90;;;26.50;99.90;;;;;;5033523;28;20462;-90
2023/09/10 10:45:40;;;;;;;17.50;15.73;;;26.60;99.90;;;;;;5017166;28;20041;-90
2023/09/10 10:48:14;;;;;;;17.35;15.55;;;26.70;99.90;;;;;;5033227;28;20040;-90
2023/09/10 10:50:41;;;;;;;18.70;16.58;;;26.80;99.90;;;;;;5033533;28;20037;-90
2023/09/10 10:53:19;;;;;;;19.67;17.75;;;26.80;99.90;;;;;;5032869;28;20482;-89
2023/09/10 10:55:47;;;;;;;17.33;15.30;;;26.90;99.90;;;;;;5034898;28;20123;-91
2023/09/10 10:58:13;;;;;;;15.77;14.10;;;26.90;99.90;;;;;;5036476;28;20124;-90
2023/09/10 11:00:39;;;;;;;14.88;12.60;;;27.10;99.90;;;;;;5021365;28;20076;-91
2023/09/10 11:03:10;;;;;;;19.85;12.52;;;27.20;99.90;;;;;;5020923;28;20075;-90
2023/09/10 11:05:53;;;;;;;14.38;12.77;;;27.30;99.90;;;;;;5037588;28;20037;-90
2023/09/10 11:08:27;;;;;;;16.05;14.30;;;27.40;99.90;;;;;;5020334;28;20045;-91
2023/09/10 11:10:52;;;;;;;15.23;13.35;;;27.50;99.90;;;;;;5037174;28;20091;-90
2023/09/10 11:13:18;;;;;;;16.40;11.88;;;27.60;99.90;;;;;;5020155;28;20045;-90
2023/09/10 11:16:05;;;;;;;13.88;11.98;;;27.70;99.90;;;;;;5020602;28;20123;-90
2023/09/10 11:18:37;;;;;;;17.00;11.23;;;27.70;99.90;;;;;;5034013;28;20442;-91
2023/09/10 11:21:07;;;;;;;18.10;12.98;;;27.80;99.60;;;;;;5013324;28;20133;-90
2023/09/10 11:23:34;;;;;;;17.52;13.32;;;27.90;98.60;;;;;;5034114;28;20037;-91
2023/09/10 11:26:12;;;;;;;15.02;12.20;;;28.00;97.50;;;;;;5020148;28;20491;-91
2023/09/10 11:28:54;;;;;;;13.63;11.02;;;28.10;97.10;;;;;;5018941;28;20040;-90
2023/09/10 11:31:38;;;;;;;15.13;11.95;;;28.20;96.50;;;;;;5019988;28;20040;-90
2023/09/10 11:34:22;;;;;;;16.83;12.20;;;28.30;97.10;;;;;;5031996;28;20052;-90
2023/09/10 11:36:54;;;;;;;14.32;12.48;;;28.50;94.70;;;;;;5011945;28;20048;-90
2023/09/10 11:39:20;;;;;;;18.23;12.85;;;28.50;93.30;;;;;;5033275;28;20041;-91
2023/09/10 11:41:47;;;;;;;17.92;12.85;;;28.60;92.60;;;;;;5035625;28;20041;-91
2023/09/10 11:44:13;;;;;;;18.38;11.93;;;28.60;92.40;;;;;;5041970;28;20055;-91
2023/09/10 11:46:39;;;;;;;14.38;10.63;;;28.70;93.90;;;;;;5041482;28;20040;-91
2023/09/10 11:49:05;;;;;;;14.25;9.82;;;28.80;93.40;;;;;;5036379;28;20416;-91
2023/09/10 11:51:32;;;;;;;16.83;10.27;;;28.90;93.30;;;;;;5036526;28;20037;-91
2023/09/10 11:53:58;;;;;;;15.32;11.27;;;29.00;92.80;;;;;;5036632;28;20401;-91
2023/09/10 11:56:25;;;;;;;19.67;11.10;;;29.10;91.20;;;;;;5037077;28;20040;-92
2023/09/10 11:58:50;;;;;;;17.52;10.43;;;29.20;90.90;;;;;;5034690;28;20560;-91
2023/09/10 12:01:16;;;;;;;16.27;9.48;;;29.30;91.00;;;;;;5015320;28;20120;-91
2023/09/10 12:03:44;;;;;;;14.35;9.55;;;29.40;91.20;;;;;;5018813;28;20044;-91
2023/09/10 12:06:11;;;;;;;16.23;9.68;;;29.50;89.70;;;;;;5023882;28;20513;-91
2023/09/10 12:08:37;;;;;;;15.80;9.50;;;29.60;88.40;;;;;;5042138;28;20048;-91
2023/09/10 12:11:06;;;;;;;21.67;10.82;;;29.70;86.20;;;;;;5044939;28;20514;-93
2023/09/10 12:13:35;;;;;;;18.85;9.68;;;29.70;84.50;;;;;;5024092;28;20053;-91
2023/09/10 12:16:01;;;;;;;19.23;9.40;;;29.80;87.50;;;;;;5036773;28;20112;-91
2023/09/10 12:18:27;;;;;;;18.95;9.13;;;29.90;84.00;;;;;;5027002;28;20033;-91
2023/09/10 12:20:53;;;;;;;21.35;9.32;;;29.90;83.70;;;;;;5027529;28;20041;-92
2023/09/10 12:23:19;;;;;;;19.35;9.02;;;30.00;82.40;;;;;;5027421;28;20070;-92
2023/09/10 12:25:59;;;;;;;19.75;8.93;;;30.00;81.90;;;;;;5024555;28;20033;-91
2023/09/10 12:28:25;;;;;;;25.70;9.93;;;30.10;79.60;;;;;;5035220;28;20044;-92
2023/09/10 12:30:52;;;;;;;21.48;9.00;;;30.20;79.80;;;;;;5038683;28;20072;-92